KLAL

Lakeland Linder Regional Airport

Lakeland, Florida, USA
METAR KLAL 180815Z AUTO 00000KT M1/4SM FG OVC005 15/15 A3022 RMK AO2
Observed Flight Rules
Dec-18 @ 08:15 UTC (24 minutes ago) Instrument Flight Rules
Wind Visibility Clouds Conditions
Calm 1/4 miles
  • Overcast at 500' AGL
  • Fog
Temperatures Readings
Current 15°C / 59°F
Dewpoint 15°C / 59°F
Humidity 100%
Altimeter 30.22" Hg
Pressure 1023 hPa
Elevation 43
METAR KLAL 180815Z AUTO 00000KT M1/4SM FG OVC005 15/15 A3022 RMK AO2
Observed Flight Rules
Dec-18 @ 08:15 UTC
(24 minutes ago)
LIFR
Wind Visibility
Calm 1/4 miles
Clouds
  • Overcast at 500' AGL
Conditions
  • Fog
Temperature Dewpoint
15°C / 59°F 15°C / 59°F
Humidity Altimeter Pressure
100% 30.22" Hg 1023 hPa